Time;durP1;ratioP1;P1;durP2;ratioP2;P2;SDS_P1;SDS_P2;PMS_P1;PMS_P2;Temp;Humidity;BMP_temperature;BMP_pressure;BME280_temperature;BME280_humidity;BME280_pressure;Samples;Min_cycle;Max_cycle;Signal;HPM_P1;HPM_P2
2021/04/01 00:01:08;;;;;;;5.50;2.00;;;18.70;99.90;;;;;;4930728;29;20231;-93
2021/04/01 00:03:39;;;;;;;3.13;1.63;;;18.70;99.90;;;;;;4928018;29;20255;-90
2021/04/01 00:06:10;;;;;;;4.40;1.70;;;18.70;99.90;;;;;;4931056;29;20235;-90
2021/04/01 00:08:42;;;;;;;3.80;1.57;;;18.70;99.90;;;;;;4931710;29;20236;-92
2021/04/01 00:11:14;;;;;;;4.40;1.90;;;18.60;99.90;;;;;;4935895;29;20209;-92
2021/04/01 00:13:45;;;;;;;8.27;1.90;;;18.50;99.90;;;;;;4934363;29;20213;-92
2021/04/01 00:16:19;;;;;;;4.53;1.80;;;18.40;99.90;;;;;;4928804;29;20248;-92
2021/04/01 00:18:50;;;;;;;6.00;2.30;;;18.40;99.90;;;;;;4929515;29;20216;-93
2021/04/01 00:21:21;;;;;;;3.60;1.93;;;18.30;99.90;;;;;;4911740;29;20210;-93
2021/04/01 00:23:54;;;;;;;4.67;1.93;;;18.20;99.90;;;;;;4910523;29;20210;-92
2021/04/01 00:26:26;;;;;;;5.97;1.97;;;18.00;99.90;;;;;;4910434;29;20641;-92
2021/04/01 00:28:58;;;;;;;5.40;2.00;;;18.00;99.90;;;;;;4910376;29;20245;-92
2021/04/01 00:31:29;;;;;;;4.87;1.90;;;17.90;99.90;;;;;;4908428;29;20701;-94
2021/04/01 00:34:00;;;;;;;6.40;1.70;;;17.70;99.90;;;;;;4907995;29;20217;-94
2021/04/01 00:36:31;;;;;;;4.07;2.10;;;17.40;99.90;;;;;;4920278;29;20708;-94
2021/04/01 00:39:09;;;;;;;3.60;1.73;;;17.40;99.90;;;;;;4928725;29;20209;-92
2021/04/01 00:41:41;;;;;;;5.57;1.93;;;17.40;99.90;;;;;;4932014;29;20211;-93
2021/04/01 00:44:13;;;;;;;5.73;2.10;;;17.30;99.90;;;;;;4926451;29;20268;-94
2021/04/01 00:46:48;;;;;;;3.20;1.77;;;17.30;99.90;;;;;;4926933;29;20256;-94
2021/04/01 00:49:21;;;;;;;2.83;1.80;;;17.10;99.90;;;;;;4926777;29;20239;-95
2021/04/01 00:51:52;;;;;;;7.43;2.23;;;16.80;99.90;;;;;;4928638;29;20609;-95
2021/04/01 00:54:25;;;;;;;5.17;2.13;;;16.60;99.90;;;;;;4925356;29;20240;-95
2021/04/01 00:56:56;;;;;;;4.47;2.30;;;16.30;99.90;;;;;;4926727;29;20268;-94
2021/04/01 00:59:29;;;;;;;6.80;2.20;;;16.10;99.90;;;;;;4926901;29;20212;-94
2021/04/01 01:02:04;;;;;;;4.03;2.03;;;16.10;99.90;;;;;;4926350;29;20208;-94
2021/04/01 01:04:37;;;;;;;5.97;2.23;;;16.00;99.90;;;;;;4926806;29;20209;-94
2021/04/01 01:07:10;;;;;;;3.40;1.97;;;16.00;99.90;;;;;;4926344;29;20649;-94
2021/04/01 01:09:42;;;;;;;2.20;1.70;;;16.00;99.90;;;;;;4929090;29;20236;-94
2021/04/01 01:12:14;;;;;;;4.13;2.17;;;16.00;99.90;;;;;;4942751;29;20290;-92
2021/04/01 01:14:44;;;;;;;5.53;2.27;;;15.90;99.90;;;;;;4943734;29;20204;-92
2021/04/01 01:17:16;;;;;;;5.80;2.33;;;15.80;99.90;;;;;;4939312;29;20209;-93
2021/04/01 01:19:53;;;;;;;4.30;1.80;;;15.80;99.90;;;;;;4928640;29;20209;-93
2021/04/01 01:22:24;;;;;;;4.77;2.10;;;15.80;99.90;;;;;;4925519;29;20205;-91
2021/04/01 01:24:57;;;;;;;6.90;1.90;;;15.80;99.90;;;;;;4923514;29;20741;-92
2021/04/01 01:27:28;;;;;;;5.50;2.07;;;15.80;99.90;;;;;;4926888;29;20217;-93
2021/04/01 01:30:00;;;;;;;6.63;2.30;;;15.80;99.90;;;;;;4922836;29;20265;-92
2021/04/01 01:32:37;;;;;;;5.87;2.57;;;15.60;99.90;;;;;;4927283;29;20582;-94
2021/04/01 01:35:18;;;;;;;4.63;2.00;;;15.70;99.90;;;;;;4929310;29;20280;-93
2021/04/01 01:37:52;;;;;;;5.33;2.20;;;15.70;99.90;;;;;;4929788;29;20213;-93
2021/04/01 01:40:25;;;;;;;4.00;2.20;;;15.80;99.90;;;;;;4932257;29;20227;-93
2021/04/01 01:42:59;;;;;;;5.03;2.20;;;15.70;99.90;;;;;;4931978;29;20221;-94
2021/04/01 01:45:30;;;;;;;5.27;1.90;;;15.50;99.90;;;;;;4928966;29;20205;-93
2021/04/01 01:48:01;;;;;;;5.47;2.40;;;15.40;99.90;;;;;;4924179;29;20235;-94
2021/04/01 01:50:34;;;;;;;4.57;2.43;;;15.10;99.90;;;;;;4922603;29;20219;-94
2021/04/01 01:53:09;;;;;;;4.10;2.20;;;14.90;99.90;;;;;;4924203;29;20205;-94
2021/04/01 01:55:42;;;;;;;4.77;2.07;;;14.60;99.90;;;;;;4924437;29;20267;-95
2021/04/01 01:58:14;;;;;;;5.77;2.40;;;14.30;99.90;;;;;;4927559;29;20276;-95
2021/04/01 02:00:49;;;;;;;4.40;2.50;;;13.90;99.90;;;;;;4931114;29;20662;-95
2021/04/01 02:03:23;;;;;;;4.57;2.40;;;13.60;99.90;;;;;;4931715;29;20209;-94
2021/04/01 02:05:56;;;;;;;3.63;2.17;;;13.50;99.90;;;;;;4931680;29;20244;-94
2021/04/01 02:08:28;;;;;;;3.73;2.50;;;13.30;99.90;;;;;;4928870;29;20244;-95
2021/04/01 02:11:00;;;;;;;5.27;2.40;;;13.20;99.90;;;;;;4929852;29;20212;-95
2021/04/01 02:13:33;;;;;;;4.30;2.37;;;13.10;99.90;;;;;;4931865;29;20209;-94
2021/04/01 02:16:06;;;;;;;4.20;1.93;;;12.90;99.90;;;;;;4941398;29;20236;-93
2021/04/01 02:18:38;;;;;;;5.20;2.87;;;12.70;99.90;;;;;;4941491;29;20213;-94
2021/04/01 02:21:11;;;;;;;7.70;2.20;;;12.60;99.90;;;;;;4940693;29;20238;-92
2021/04/01 02:23:42;;;;;;;7.97;2.37;;;12.50;99.90;;;;;;4939504;29;20220;-94
2021/04/01 02:26:14;;;;;;;5.33;2.30;;;12.40;99.90;;;;;;4940055;29;20213;-93
2021/04/01 02:28:46;;;;;;;7.50;2.27;;;12.20;99.90;;;;;;4938719;29;20231;-94
2021/04/01 02:31:20;;;;;;;4.43;2.07;;;12.10;99.90;;;;;;4932920;29;20240;-95
2021/04/01 02:33:53;;;;;;;9.80;2.57;;;11.90;99.90;;;;;;4923794;29;20265;-93
2021/04/01 02:36:25;;;;;;;5.37;2.37;;;11.80;99.90;;;;;;4925339;29;20212;-94
2021/04/01 02:38:56;;;;;;;3.80;2.63;;;11.70;99.90;;;;;;4927425;29;20230;-94
2021/04/01 02:41:29;;;;;;;5.80;2.43;;;11.50;99.90;;;;;;4928542;29;20236;-95
2021/04/01 02:44:00;;;;;;;6.10;2.40;;;11.50;99.90;;;;;;4921604;29;20210;-94
2021/04/01 02:46:32;;;;;;;6.80;2.53;;;11.40;99.90;;;;;;4903910;29;20205;-95
2021/04/01 02:49:03;;;;;;;6.53;2.80;;;11.30;99.90;;;;;;4917036;29;20218;-94
2021/04/01 02:51:36;;;;;;;8.20;2.93;;;11.20;99.90;;;;;;4920751;29;20200;-94
2021/04/01 02:54:07;;;;;;;5.97;2.70;;;11.20;99.90;;;;;;4915472;29;20210;-94
2021/04/01 02:56:40;;;;;;;5.17;3.00;;;11.10;99.90;;;;;;4902520;29;20749;-94
2021/04/01 02:59:11;;;;;;;7.47;3.20;;;11.10;99.90;;;;;;4904544;29;20210;-94
2021/04/01 03:01:42;;;;;;;4.93;2.63;;;11.10;99.90;;;;;;4902123;29;20225;-94
2021/04/01 03:04:15;;;;;;;8.18;2.85;;;11.00;99.90;;;;;;4601973;28;10001171;-94
2021/04/01 03:06:45;;;;;;;6.57;3.50;;;10.90;99.90;;;;;;4929009;29;20433;-94
2021/04/01 03:09:16;;;;;;;7.23;3.47;;;10.90;99.90;;;;;;4912645;29;20255;-93
2021/04/01 03:11:49;;;;;;;9.47;3.40;;;10.80;99.90;;;;;;4919207;29;20201;-93
2021/04/01 03:14:20;;;;;;;6.57;3.23;;;10.70;99.90;;;;;;4920929;29;20666;-94
2021/04/01 03:16:50;;;;;;;5.00;3.00;;;10.60;99.90;;;;;;4918937;29;20220;-92
2021/04/01 03:19:21;;;;;;;8.07;4.50;;;10.50;99.90;;;;;;4919803;29;20216;-92
2021/04/01 03:21:52;;;;;;;10.70;4.03;;;10.40;99.90;;;;;;4921702;29;20217;-93
2021/04/01 03:24:22;;;;;;;6.23;3.80;;;10.30;99.90;;;;;;4919363;29;20658;-93
2021/04/01 03:26:55;;;;;;;5.87;3.80;;;10.30;99.90;;;;;;4921049;29;20225;-93
2021/04/01 03:29:26;;;;;;;6.83;3.73;;;10.20;99.90;;;;;;4919231;29;20232;-93
2021/04/01 03:31:58;;;;;;;10.97;3.93;;;10.10;99.90;;;;;;4920986;29;20253;-93
2021/04/01 03:34:29;;;;;;;6.73;3.70;;;10.10;99.90;;;;;;4909771;29;20229;-93
2021/04/01 03:37:00;;;;;;;5.13;3.17;;;10.00;99.90;;;;;;4902788;29;20281;-93
2021/04/01 03:39:31;;;;;;;8.17;3.73;;;10.00;99.90;;;;;;4907161;29;20232;-93
2021/04/01 03:42:04;;;;;;;4.47;3.50;;;10.00;99.90;;;;;;4909143;29;20241;-94
2021/04/01 03:44:57;;;;;;;8.50;3.33;;;9.90;99.90;;;;;;4912665;29;20197;-94
2021/04/01 03:47:27;;;;;;;5.97;3.13;;;9.80;99.90;;;;;;4916394;29;20213;-94
2021/04/01 03:49:58;;;;;;;6.77;3.50;;;9.70;99.90;;;;;;4926095;29;20233;-94
2021/04/01 03:52:29;;;;;;;5.67;3.43;;;9.70;99.90;;;;;;4937193;29;20196;-94
2021/04/01 03:55:05;;;;;;;6.73;3.33;;;9.60;99.90;;;;;;5006003;23;20245;-95
2021/04/01 03:57:38;;;;;;;6.53;3.20;;;9.60;99.90;;;;;;4915172;29;20240;-92
2021/04/01 04:00:11;;;;;;;6.47;3.37;;;9.60;99.90;;;;;;4916032;29;20420;-94
2021/04/01 04:02:53;;;;;;;6.30;3.13;;;9.50;99.90;;;;;;4912579;29;20238;-94
2021/04/01 04:13:53;;;;;;;5.83;3.50;;;9.30;99.90;;;;;;5033112;23;20243;-94
2021/04/01 04:16:32;;;;;;;6.77;4.10;;;9.30;99.90;;;;;;4930353;29;20221;-94
2021/04/01 04:19:03;;;;;;;8.73;3.83;;;9.20;99.90;;;;;;4925138;29;20641;-94
2021/04/01 04:21:34;;;;;;;6.00;3.37;;;9.20;99.90;;;;;;4923240;29;20335;-94
2021/04/01 04:24:06;;;;;;;6.27;3.90;;;9.20;99.90;;;;;;4921638;29;20212;-91
2021/04/01 04:26:39;;;;;;;19.60;12.80;;;9.20;99.90;;;;;;4922316;29;20237;-93
2021/04/01 04:29:11;;;;;;;17.67;12.27;;;9.10;99.90;;;;;;4921778;29;20240;-93
2021/04/01 04:31:44;;;;;;;20.53;11.33;;;9.10;99.90;;;;;;4921162;29;20204;-93
2021/04/01 04:34:15;;;;;;;10.57;6.57;;;9.00;99.90;;;;;;4919019;29;20221;-92
2021/04/01 04:36:46;;;;;;;9.27;5.60;;;9.00;99.90;;;;;;4920837;29;20208;-93
2021/04/01 04:39:16;;;;;;;5.57;3.73;;;9.00;99.90;;;;;;4920787;29;20209;-93
2021/04/01 04:41:47;;;;;;;7.40;4.27;;;9.00;99.90;;;;;;4921411;29;20229;-92
2021/04/01 04:44:19;;;;;;;7.57;4.10;;;8.90;99.90;;;;;;4920470;29;20742;-93
2021/04/01 04:46:49;;;;;;;6.67;3.50;;;8.90;99.90;;;;;;4920817;29;20219;-94
2021/04/01 04:49:20;;;;;;;5.50;3.33;;;8.80;99.90;;;;;;4920341;29;20331;-93
2021/04/01 04:51:52;;;;;;;6.50;3.83;;;8.80;99.90;;;;;;4922673;29;20635;-93
2021/04/01 04:54:23;;;;;;;6.43;4.23;;;8.80;99.90;;;;;;4954567;28;20212;-94
2021/04/01 04:56:55;;;;;;;6.47;4.30;;;8.70;99.90;;;;;;4926530;29;20280;-94
2021/04/01 04:59:30;;;;;;;10.30;6.37;;;8.70;99.90;;;;;;4925795;29;20685;-94
2021/04/01 05:04:53;;;;;;;7.53;6.13;;;8.70;99.90;;;;;;4923307;29;20217;-94
2021/04/01 05:07:23;;;;;;;9.17;6.17;;;8.60;99.90;;;;;;4925452;29;20239;-94
2021/04/01 05:09:54;;;;;;;8.93;6.40;;;8.50;99.90;;;;;;4929150;29;20272;-93
2021/04/01 05:12:24;;;;;;;8.57;5.50;;;8.50;99.90;;;;;;4929348;29;20220;-94
2021/04/01 05:14:56;;;;;;;7.13;4.90;;;8.40;99.90;;;;;;4957094;29;20280;-93
2021/04/01 05:17:27;;;;;;;12.60;5.93;;;8.40;99.90;;;;;;4930732;29;20213;-93
2021/04/01 05:20:01;;;;;;;9.77;5.80;;;8.30;99.90;;;;;;4930018;29;20236;-93
2021/04/01 05:22:40;;;;;;;12.17;5.43;;;8.30;99.90;;;;;;4932128;29;20245;-93
2021/04/01 05:25:13;;;;;;;12.67;5.60;;;8.30;99.90;;;;;;4931340;29;20749;-93
2021/04/01 05:27:47;;;;;;;11.83;4.83;;;8.20;99.90;;;;;;4929914;29;20642;-93
2021/04/01 05:30:21;;;;;;;7.80;4.37;;;8.10;99.90;;;;;;4911318;29;20243;-93
2021/04/01 05:32:52;;;;;;;8.60;3.83;;;8.10;99.90;;;;;;4914572;29;20291;-93
2021/04/01 05:35:23;;;;;;;9.13;3.70;;;8.10;99.90;;;;;;4912888;29;20224;-93
2021/04/01 05:37:54;;;;;;;5.27;3.40;;;8.00;99.90;;;;;;4911185;29;20328;-94
2021/04/01 05:40:25;;;;;;;6.40;3.67;;;8.00;99.90;;;;;;4916872;29;20194;-92
2021/04/01 05:42:56;;;;;;;6.10;3.90;;;8.00;99.90;;;;;;4921785;29;20237;-93
2021/04/01 05:45:36;;;;;;;8.03;4.17;;;7.90;99.90;;;;;;4926937;29;20284;-94
2021/04/01 05:48:14;;;;;;;9.67;4.47;;;7.90;99.90;;;;;;4927412;29;20213;-94
2021/04/01 05:51:09;;;;;;;7.30;3.97;;;7.80;99.90;;;;;;4925797;29;20302;-94
2021/04/01 05:57:10;;;;;;;6.33;4.10;;;7.70;99.90;;;;;;4923220;29;20268;-92
2021/04/01 06:02:49;;;;;;;6.87;4.20;;;7.60;99.90;;;;;;4921306;29;20730;-94
2021/04/01 06:05:24;;;;;;;5.93;4.20;;;7.60;99.90;;;;;;4928898;29;20312;-94
2021/04/01 06:07:58;;;;;;;6.80;4.37;;;7.50;99.90;;;;;;4932581;29;20276;-92
2021/04/01 06:10:29;;;;;;;8.87;4.43;;;7.50;99.90;;;;;;4938357;29;20242;-91
2021/04/01 06:13:00;;;;;;;6.60;4.70;;;7.40;99.90;;;;;;4940661;29;20207;-93
2021/04/01 06:15:35;;;;;;;8.70;4.53;;;7.40;99.90;;;;;;4938365;29;20255;-93
2021/04/01 06:18:14;;;;;;;7.23;4.87;;;7.30;99.90;;;;;;4938107;29;20274;-93
2021/04/01 06:20:46;;;;;;;9.07;4.47;;;7.20;99.90;;;;;;4935301;28;20220;-93
2021/04/01 06:23:29;;;;;;;7.47;4.27;;;7.20;99.90;;;;;;4926678;29;20247;-93
2021/04/01 06:26:01;;;;;;;7.53;4.87;;;7.20;99.90;;;;;;4934668;29;20226;-92
2021/04/01 06:28:42;;;;;;;11.63;4.47;;;7.20;99.90;;;;;;4930576;29;20230;-91
2021/04/01 06:31:20;;;;;;;8.37;4.60;;;7.20;99.90;;;;;;4924199;29;20239;-91
2021/04/01 06:33:59;;;;;;;7.63;4.50;;;7.20;99.90;;;;;;4924839;29;20214;-92
2021/04/01 06:36:33;;;;;;;6.97;4.43;;;7.10;99.90;;;;;;4924958;29;20243;-91
2021/04/01 06:39:04;;;;;;;6.93;4.40;;;7.00;99.90;;;;;;4920378;29;20601;-92
2021/04/01 06:41:34;;;;;;;5.97;4.33;;;7.00;99.90;;;;;;4920852;29;20580;-93
2021/04/01 06:44:22;;;;;;;8.97;4.33;;;7.00;99.90;;;;;;4920782;29;20246;-92
2021/04/01 06:46:58;;;;;;;7.93;4.43;;;7.00;99.90;;;;;;4921491;29;20215;-93
2021/04/01 06:50:02;;;;;;;5.20;3.73;;;7.00;99.90;;;;;;4921032;29;20296;-94
2021/04/01 06:52:40;;;;;;;8.30;4.47;;;7.00;99.90;;;;;;4919739;29;20208;-93
2021/04/01 06:55:35;;;;;;;7.93;3.73;;;6.90;99.90;;;;;;4922818;29;20227;-93
2021/04/01 06:58:17;;;;;;;7.03;3.80;;;6.90;99.90;;;;;;4922197;29;20212;-93
2021/04/01 07:01:19;;;;;;;8.97;4.07;;;6.80;99.90;;;;;;4920790;29;20215;-93
2021/04/01 07:03:58;;;;;;;6.90;3.80;;;6.80;99.90;;;;;;4922546;29;20217;-93
2021/04/01 07:06:35;;;;;;;11.33;4.47;;;6.70;99.90;;;;;;4921194;29;20205;-93
2021/04/01 07:09:29;;;;;;;6.17;3.50;;;6.70;99.90;;;;;;4922989;29;20271;-93
2021/04/01 07:12:15;;;;;;;7.07;3.97;;;6.70;99.90;;;;;;4925964;29;20221;-93
2021/04/01 07:14:49;;;;;;;6.53;4.10;;;6.60;99.90;;;;;;4928785;29;20272;-92
2021/04/01 07:17:25;;;;;;;10.87;4.53;;;6.60;99.90;;;;;;4927494;29;20314;-92
2021/04/01 07:23:04;;;;;;;7.67;4.93;;;6.50;99.90;;;;;;4920785;29;20213;-92
2021/04/01 07:32:07;;;;;;;7.03;4.57;;;6.50;99.90;;;;;;4866143;29;20267;-92
2021/04/01 07:49:03;;;;;;;11.17;5.47;;;6.30;99.90;;;;;;4936664;29;20192;-93
2021/04/01 07:51:50;;;;;;;10.03;4.60;;;6.30;99.90;;;;;;4939875;29;20196;-93
2021/04/01 07:54:37;;;;;;;8.80;4.37;;;6.30;99.90;;;;;;4936791;29;20212;-93
2021/04/01 08:00:15;;;;;;;9.07;4.47;;;6.20;99.90;;;;;;4925987;29;20265;-93
2021/04/01 08:03:02;;;;;;;9.53;4.70;;;6.20;99.90;;;;;;4922683;29;20241;-94
2021/04/01 08:05:34;;;;;;;6.37;3.67;;;6.20;99.90;;;;;;4922512;29;20670;-93
2021/04/01 08:08:06;;;;;;;9.00;3.90;;;6.20;99.90;;;;;;4920768;29;20276;-94
2021/04/01 08:10:44;;;;;;;6.17;3.87;;;6.20;99.90;;;;;;4922151;29;20229;-93
2021/04/01 08:13:17;;;;;;;8.77;4.50;;;6.20;99.90;;;;;;4924449;29;20227;-94
2021/04/01 08:15:53;;;;;;;5.57;3.67;;;6.10;99.90;;;;;;4923927;29;20213;-94
2021/04/01 08:18:26;;;;;;;9.57;3.57;;;6.10;99.90;;;;;;4925013;29;20229;-93
2021/04/01 08:21:01;;;;;;;8.97;4.43;;;6.10;99.90;;;;;;4925669;29;20346;-93
2021/04/01 08:24:03;;;;;;;7.50;4.07;;;6.00;99.90;;;;;;4927103;29;20209;-93
2021/04/01 08:27:15;;;;;;;8.30;4.50;;;6.00;99.90;;;;;;4929763;29;20243;-93
2021/04/01 08:33:28;;;;;;;6.87;4.10;;;5.80;99.90;;;;;;4938377;29;20215;-93
2021/04/01 08:36:23;;;;;;;7.67;4.47;;;5.80;99.90;;;;;;4936878;29;20775;-91
2021/04/01 08:39:15;;;;;;;8.77;4.53;;;5.70;99.90;;;;;;4930675;29;20285;-92
2021/04/01 08:42:53;;;;;;;11.53;4.03;;;5.70;99.90;;;;;;4927734;29;20219;-92
2021/04/01 08:46:01;;;;;;;7.80;4.23;;;5.70;99.90;;;;;;4912229;29;20232;-93
2021/04/01 08:49:12;;;;;;;8.73;3.77;;;5.60;99.90;;;;;;4909865;29;20236;-93
2021/04/01 08:52:05;;;;;;;5.80;4.07;;;5.60;99.90;;;;;;4904070;29;20213;-93
2021/04/01 08:54:44;;;;;;;7.97;3.90;;;5.60;99.90;;;;;;4923565;29;20242;-92
2021/04/01 08:57:24;;;;;;;6.83;4.67;;;5.60;99.90;;;;;;4923580;29;20226;-93
2021/04/01 09:00:05;;;;;;;5.70;3.73;;;5.50;99.90;;;;;;4902371;29;20295;-92
2021/04/01 09:02:39;;;;;;;8.20;3.90;;;5.50;99.90;;;;;;4906584;29;20265;-93
2021/04/01 09:05:12;;;;;;;9.37;4.10;;;5.50;99.90;;;;;;4904782;29;20220;-93
2021/04/01 09:07:46;;;;;;;7.73;3.90;;;5.50;99.90;;;;;;4904851;29;20307;-94
2021/04/01 09:10:20;;;;;;;6.53;3.87;;;5.50;99.90;;;;;;4905019;29;20229;-93
2021/04/01 09:12:55;;;;;;;6.47;4.23;;;5.50;99.90;;;;;;4904656;29;20304;-94
2021/04/01 09:15:44;;;;;;;7.27;4.07;;;5.50;99.90;;;;;;4904381;29;20605;-92
2021/04/01 09:18:22;;;;;;;8.27;4.13;;;5.50;99.90;;;;;;4912447;29;20216;-93
2021/04/01 09:20:53;;;;;;;7.10;3.83;;;5.50;99.90;;;;;;4922966;29;20220;-92
2021/04/01 09:23:36;;;;;;;10.10;4.53;;;5.40;99.90;;;;;;4924514;29;20244;-93
2021/04/01 09:26:08;;;;;;;6.67;3.83;;;5.40;99.90;;;;;;4926318;29;20212;-92
2021/04/01 09:28:41;;;;;;;9.23;4.40;;;5.40;99.90;;;;;;4929942;29;20276;-92
2021/04/01 09:31:14;;;;;;;9.70;4.47;;;5.40;99.90;;;;;;4924311;29;20240;-92
2021/04/01 09:33:45;;;;;;;7.70;4.00;;;5.30;99.90;;;;;;4922880;29;20299;-93
2021/04/01 09:36:17;;;;;;;8.20;4.53;;;5.30;99.90;;;;;;4925390;29;20213;-91
2021/04/01 09:38:52;;;;;;;7.33;4.33;;;5.30;99.90;;;;;;4922611;29;20265;-93
2021/04/01 09:41:31;;;;;;;9.93;4.63;;;5.20;99.90;;;;;;4925242;29;20212;-93
2021/04/01 09:44:06;;;;;;;7.50;3.73;;;5.20;99.90;;;;;;4923124;29;20220;-92
2021/04/01 09:46:58;;;;;;;7.73;4.10;;;5.20;99.90;;;;;;4922889;29;20212;-91
2021/04/01 09:49:34;;;;;;;7.90;3.90;;;5.20;99.90;;;;;;4923008;29;20236;-91
2021/04/01 09:52:08;;;;;;;9.00;3.83;;;5.20;99.90;;;;;;4922971;29;20581;-93
2021/04/01 09:54:44;;;;;;;6.63;4.53;;;5.10;99.90;;;;;;4922212;29;20212;-92
2021/04/01 09:57:18;;;;;;;8.43;4.50;;;5.10;99.90;;;;;;4921906;29;20216;-92
2021/04/01 09:59:54;;;;;;;8.17;4.60;;;5.10;99.90;;;;;;4921797;29;20212;-92
2021/04/01 10:02:32;;;;;;;6.17;3.73;;;5.10;99.90;;;;;;4922595;29;20299;-93
2021/04/01 10:05:05;;;;;;;9.40;4.60;;;5.10;99.90;;;;;;4923196;29;20224;-93
2021/04/01 10:07:37;;;;;;;7.50;4.17;;;5.10;99.90;;;;;;4922645;29;20252;-93
2021/04/01 10:10:10;;;;;;;4.80;3.77;;;5.00;99.90;;;;;;4924605;29;20633;-93
2021/04/01 10:12:43;;;;;;;6.37;3.73;;;5.00;99.90;;;;;;4932253;29;20217;-91
2021/04/01 10:15:15;;;;;;;5.87;4.10;;;4.90;99.90;;;;;;4928840;29;20267;-92
2021/04/01 10:17:49;;;;;;;6.20;3.67;;;4.90;99.90;;;;;;4932133;29;20637;-92
2021/04/01 10:20:20;;;;;;;4.37;3.70;;;4.90;99.90;;;;;;4932168;29;20224;-92
2021/04/01 10:22:53;;;;;;;7.00;4.00;;;4.90;99.90;;;;;;4930544;29;20618;-92
2021/04/01 10:25:28;;;;;;;7.10;4.00;;;4.90;99.90;;;;;;4930608;29;20261;-92
2021/04/01 10:28:05;;;;;;;8.50;4.00;;;4.90;99.90;;;;;;4927190;29;20246;-92
2021/04/01 10:30:36;;;;;;;4.33;3.43;;;4.90;99.90;;;;;;4927475;29;20615;-92
2021/04/01 10:33:21;;;;;;;9.17;3.57;;;4.90;99.90;;;;;;4927750;29;20212;-92
2021/04/01 10:35:57;;;;;;;7.30;3.80;;;4.90;99.90;;;;;;4926941;29;20229;-92
2021/04/01 10:38:30;;;;;;;7.33;3.70;;;4.80;99.90;;;;;;4921381;29;20581;-92
2021/04/01 10:41:16;;;;;;;10.67;4.60;;;4.80;99.90;;;;;;4921060;29;20216;-92
2021/04/01 10:43:47;;;;;;;8.97;4.10;;;4.80;99.90;;;;;;4921249;29;20205;-91
2021/04/01 10:46:20;;;;;;;6.60;3.70;;;4.80;99.90;;;;;;4923114;29;20284;-92
2021/04/01 10:49:01;;;;;;;9.47;3.77;;;4.80;99.90;;;;;;4936284;29;20217;-92
2021/04/01 10:51:33;;;;;;;4.90;3.40;;;4.80;99.90;;;;;;4936030;29;20248;-93
2021/04/01 10:54:20;;;;;;;7.13;3.73;;;4.70;99.90;;;;;;4926847;29;20204;-92
2021/04/01 10:56:55;;;;;;;6.93;3.87;;;4.70;99.90;;;;;;4932816;29;20233;-91
2021/04/01 10:59:43;;;;;;;6.27;3.60;;;4.70;99.90;;;;;;4924431;29;20240;-93
2021/04/01 11:02:17;;;;;;;5.37;4.13;;;4.70;99.90;;;;;;4922423;29;20216;-92
2021/04/01 11:04:54;;;;;;;7.67;3.80;;;4.70;99.90;;;;;;4922599;29;20217;-92
2021/04/01 11:07:26;;;;;;;4.57;3.57;;;4.70;99.90;;;;;;4919729;29;20213;-93
2021/04/01 11:09:58;;;;;;;7.90;3.83;;;4.70;99.90;;;;;;4921682;29;20650;-92
2021/04/01 11:12:29;;;;;;;7.90;3.93;;;4.70;99.90;;;;;;4918933;29;20299;-93
2021/04/01 11:15:05;;;;;;;5.63;3.57;;;4.70;99.90;;;;;;4920273;29;20280;-91
2021/04/01 11:17:43;;;;;;;4.57;3.43;;;4.70;99.90;;;;;;4920424;29;20286;-91
2021/04/01 11:20:20;;;;;;;7.10;4.10;;;4.60;99.90;;;;;;4919932;29;20265;-91
2021/04/01 11:23:08;;;;;;;6.20;3.67;;;4.60;99.90;;;;;;4920777;29;20268;-90
2021/04/01 11:25:46;;;;;;;5.17;3.57;;;4.60;99.90;;;;;;4922108;29;20248;-91
2021/04/01 11:28:16;;;;;;;7.67;3.57;;;4.60;99.90;;;;;;4919580;29;20232;-91
2021/04/01 11:30:50;;;;;;;7.37;4.57;;;4.60;99.90;;;;;;4921004;29;20229;-91
2021/04/01 11:33:23;;;;;;;6.00;4.13;;;4.60;99.90;;;;;;4919789;29;20217;-91
2021/04/01 11:36:03;;;;;;;10.33;4.37;;;4.60;99.90;;;;;;4922207;29;20214;-91
2021/04/01 11:38:41;;;;;;;6.00;3.87;;;4.60;99.90;;;;;;4938831;29;20224;-92
2021/04/01 11:41:16;;;;;;;8.47;4.00;;;4.60;99.90;;;;;;4935463;29;20281;-91
2021/04/01 11:43:54;;;;;;;7.47;3.07;;;4.50;99.90;;;;;;4922359;29;20683;-91
2021/04/01 11:46:26;;;;;;;4.30;2.90;;;4.50;99.90;;;;;;4922857;29;20209;-92
2021/04/01 11:48:58;;;;;;;6.80;3.63;;;4.50;99.90;;;;;;4923566;29;20205;-92
2021/04/01 11:51:33;;;;;;;6.30;3.60;;;4.50;99.90;;;;;;4920665;29;20267;-92
2021/04/01 11:54:06;;;;;;;7.10;3.43;;;4.50;99.90;;;;;;4919822;29;20291;-92
2021/04/01 11:56:38;;;;;;;5.93;3.80;;;4.60;99.90;;;;;;4920565;29;20217;-92
2021/04/01 11:59:10;;;;;;;6.17;3.20;;;4.60;99.90;;;;;;4918798;29;20213;-92
2021/04/01 12:01:50;;;;;;;5.43;3.30;;;4.50;99.90;;;;;;4918966;29;20581;-92
2021/04/01 12:04:26;;;;;;;9.80;3.60;;;4.50;99.90;;;;;;4919605;29;20216;-92
2021/04/01 12:06:59;;;;;;;4.70;3.33;;;4.50;99.90;;;;;;4920653;29;20237;-92
2021/04/01 12:09:30;;;;;;;7.03;3.40;;;4.50;99.90;;;;;;4924192;29;20265;-92
2021/04/01 12:12:01;;;;;;;5.93;3.33;;;4.50;99.90;;;;;;4929101;29;20219;-92
2021/04/01 12:14:36;;;;;;;4.67;3.50;;;4.50;99.90;;;;;;4927515;29;20280;-92
2021/04/01 12:17:08;;;;;;;9.03;3.70;;;4.50;99.90;;;;;;4926873;29;20228;-92
2021/04/01 12:19:39;;;;;;;5.57;3.60;;;4.50;99.90;;;;;;4928981;29;20272;-92
2021/04/01 12:22:14;;;;;;;6.17;3.77;;;4.50;99.90;;;;;;4927502;29;20301;-91
2021/04/01 12:24:45;;;;;;;7.47;3.90;;;4.50;99.90;;;;;;4923569;29;20240;-91
2021/04/01 12:27:27;;;;;;;6.87;4.30;;;4.50;99.90;;;;;;4936800;29;20694;-91
2021/04/01 12:29:58;;;;;;;5.57;3.93;;;4.40;99.90;;;;;;4921422;29;20273;-91
2021/04/01 12:32:34;;;;;;;6.97;4.23;;;4.50;99.90;;;;;;4920289;29;20217;-92
2021/04/01 12:35:16;;;;;;;10.03;3.40;;;4.50;99.90;;;;;;4919688;29;20260;-91
2021/04/01 12:38:01;;;;;;;6.23;3.60;;;4.50;99.90;;;;;;4919370;29;20245;-91
2021/04/01 12:40:39;;;;;;;9.87;3.50;;;4.60;99.90;;;;;;4919374;29;20209;-91
2021/04/01 12:43:11;;;;;;;12.40;3.50;;;4.70;99.90;;;;;;4919763;29;20213;-91
2021/04/01 12:45:42;;;;;;;5.97;3.50;;;4.80;99.90;;;;;;4917769;29;20437;-92
2021/04/01 12:48:16;;;;;;;5.30;3.10;;;5.00;99.90;;;;;;4920379;29;20272;-92
2021/04/01 12:50:51;;;;;;;6.17;2.90;;;5.30;99.90;;;;;;4919757;29;20264;-92
2021/04/01 12:53:24;;;;;;;7.80;2.40;;;5.90;99.90;;;;;;4919622;29;20722;-93
2021/04/01 12:56:06;;;;;;;6.43;2.50;;;6.40;99.90;;;;;;4920392;29;20214;-92
2021/04/01 12:58:39;;;;;;;3.30;2.40;;;6.80;99.90;;;;;;4920302;29;20209;-92
2021/04/01 13:01:23;;;;;;;5.03;2.00;;;6.90;99.90;;;;;;4923596;29;20562;-92
2021/04/01 13:04:00;;;;;;;5.63;2.20;;;7.60;99.90;;;;;;4937447;28;20197;-93
2021/04/01 13:06:44;;;;;;;5.90;2.10;;;7.80;99.90;;;;;;4938931;28;20216;-92
2021/04/01 13:12:12;;;;;;;3.30;1.77;;;8.10;99.90;;;;;;4920248;29;20233;-92
2021/04/01 13:14:43;;;;;;;7.73;2.97;;;8.00;99.90;;;;;;4926789;29;20272;-91
2021/04/01 13:17:14;;;;;;;5.80;3.50;;;7.70;99.90;;;;;;4939673;29;20220;-90
2021/04/01 13:19:45;;;;;;;6.40;3.10;;;7.30;99.90;;;;;;4942499;29;20213;-91
2021/04/01 13:22:21;;;;;;;4.40;2.50;;;6.90;99.90;;;;;;4968691;28;20212;-91
2021/04/01 13:27:43;;;;;;;9.43;2.97;;;6.60;99.90;;;;;;4923078;29;20202;-92
2021/04/01 13:30:16;;;;;;;9.73;4.30;;;6.60;99.90;;;;;;4922915;29;20277;-92
2021/04/01 13:32:54;;;;;;;9.33;4.37;;;6.50;99.90;;;;;;4917132;29;20565;-93
2021/04/01 13:35:32;;;;;;;5.33;3.73;;;6.20;99.90;;;;;;4913636;29;20248;-92
2021/04/01 13:38:07;;;;;;;6.40;4.37;;;5.90;99.90;;;;;;4911020;29;20686;-92
2021/04/01 13:40:42;;;;;;;5.40;3.90;;;5.60;99.90;;;;;;4905042;29;20233;-92
2021/04/01 13:43:15;;;;;;;11.17;4.70;;;5.40;99.90;;;;;;4903731;29;20369;-92
2021/04/01 13:45:45;;;;;;;9.60;4.27;;;5.30;99.90;;;;;;4904104;29;20242;-92
2021/04/01 13:48:23;;;;;;;9.50;4.47;;;5.20;99.90;;;;;;4904614;29;20304;-93
2021/04/01 13:51:04;;;;;;;5.93;4.57;;;5.10;99.90;;;;;;4904367;29;20233;-93
2021/04/01 13:54:06;;;;;;;6.13;4.07;;;5.00;99.90;;;;;;4906512;29;20216;-93
2021/04/01 13:56:54;;;;;;;6.03;3.23;;;5.00;99.90;;;;;;4904489;29;20281;-93
2021/04/01 13:59:29;;;;;;;8.43;4.37;;;5.00;99.90;;;;;;4905355;29;20237;-93
2021/04/01 14:10:34;;;;;;;6.00;3.70;;;5.00;99.90;;;;;;4928495;29;20295;-93
2021/04/01 14:13:07;;;;;;;8.03;3.57;;;5.00;99.90;;;;;;4928603;29;20217;-93
2021/04/01 14:15:40;;;;;;;5.40;4.00;;;5.00;99.90;;;;;;4928850;29;20705;-92
2021/04/01 14:18:19;;;;;;;7.27;4.40;;;5.00;99.90;;;;;;4927829;29;20210;-92
2021/04/01 14:20:52;;;;;;;7.47;4.73;;;5.00;99.90;;;;;;4925224;29;20204;-92
2021/04/01 14:23:24;;;;;;;7.03;4.57;;;4.90;99.90;;;;;;4922501;29;20213;-93
2021/04/01 14:25:58;;;;;;;6.93;5.00;;;4.90;99.90;;;;;;4923100;29;20209;-93
2021/04/01 14:28:35;;;;;;;9.60;5.37;;;5.00;99.90;;;;;;4922602;29;20218;-92
2021/04/01 14:31:06;;;;;;;9.10;4.87;;;4.90;99.90;;;;;;4923764;29;20312;-91
2021/04/01 14:33:40;;;;;;;11.30;5.73;;;4.80;99.90;;;;;;4921100;29;20235;-91
2021/04/01 14:36:22;;;;;;;6.20;4.37;;;4.80;99.90;;;;;;4920925;29;20223;-91
2021/04/01 14:38:53;;;;;;;9.40;5.60;;;4.80;99.90;;;;;;4921995;29;20233;-91